Time;durP1;ratioP1;P1;durP2;ratioP2;P2;SDS_P1;SDS_P2;PMS_P1;PMS_P2;Temp;Humidity;BMP_temperature;BMP_pressure;BME280_temperature;BME280_humidity;BME280_pressure;Samples;Min_cycle;Max_cycle;Signal;HPM_P1;HPM_P2
2021/07/24 00:01:15;;;;;;;8.90;8.10;;;24.00;28.80;;;;;;10426672;28;20249;-71
2021/07/24 00:06:19;;;;;;;8.60;7.80;;;24.00;29.20;;;;;;10423964;28;20783;-71
2021/07/24 00:11:22;;;;;;;9.07;8.27;;;24.00;28.90;;;;;;10424167;28;20736;-71
2021/07/24 00:16:27;;;;;;;9.23;8.17;;;23.90;29.00;;;;;;10428790;28;20229;-71
2021/07/24 00:21:30;;;;;;;9.40;8.40;;;23.90;29.20;;;;;;10423747;28;20230;-71
2021/07/24 00:26:33;;;;;;;9.17;8.07;;;23.80;29.10;;;;;;10421600;28;20624;-71
2021/07/24 00:31:38;;;;;;;8.20;7.53;;;23.70;29.10;;;;;;10428570;28;20225;-71
2021/07/24 00:36:41;;;;;;;9.77;8.37;;;23.70;29.50;;;;;;10419357;28;20240;-71
2021/07/24 00:41:47;;;;;;;7.93;7.23;;;23.60;29.10;;;;;;10423585;28;20606;-71
2021/07/24 00:46:52;;;;;;;9.13;7.20;;;23.50;29.10;;;;;;10418991;28;20221;-71
2021/07/24 00:51:56;;;;;;;8.53;7.73;;;23.50;29.50;;;;;;10421882;28;20237;-71
2021/07/24 00:56:59;;;;;;;7.93;7.23;;;23.40;29.30;;;;;;10415571;28;20233;-71
2021/07/24 01:02:03;;;;;;;8.63;7.83;;;23.30;29.30;;;;;;10423391;28;20228;-71
2021/07/24 01:07:08;;;;;;;8.13;7.43;;;23.20;30.10;;;;;;10424725;28;20299;-71
2021/07/24 01:12:11;;;;;;;8.40;7.70;;;23.20;29.70;;;;;;10417837;28;20706;-71
2021/07/24 01:17:15;;;;;;;8.97;8.17;;;23.00;29.40;;;;;;10429454;28;20318;-71
2021/07/24 01:22:20;;;;;;;8.37;7.30;;;22.90;29.90;;;;;;10420035;28;20312;-71
2021/07/24 01:27:24;;;;;;;8.00;7.23;;;22.90;29.90;;;;;;10422716;28;20225;-71
2021/07/24 01:32:27;;;;;;;8.40;7.60;;;22.80;29.50;;;;;;10419454;28;20232;-71
2021/07/24 01:37:31;;;;;;;8.17;7.47;;;22.70;29.60;;;;;;10425815;28;20234;-71
2021/07/24 01:42:34;;;;;;;7.77;7.00;;;22.60;30.00;;;;;;10419766;28;20241;-71
2021/07/24 01:47:37;;;;;;;9.00;8.10;;;22.50;29.90;;;;;;10421608;28;20569;-71
2021/07/24 01:52:48;;;;;;;8.60;7.80;;;22.40;30.00;;;;;;10427875;28;20229;-71
2021/07/24 01:57:54;;;;;;;7.97;7.17;;;22.30;30.50;;;;;;10433618;28;20581;-71
2021/07/24 02:02:59;;;;;;;8.20;7.47;;;22.20;30.30;;;;;;10427994;28;20248;-71
2021/07/24 02:08:06;;;;;;;8.50;7.40;;;22.20;30.20;;;;;;10432937;28;20217;-71
2021/07/24 02:13:10;;;;;;;8.50;7.63;;;22.00;30.60;;;;;;10425643;28;20243;-71
2021/07/24 02:18:17;;;;;;;8.77;6.93;;;22.00;30.30;;;;;;10428046;28;20230;-71
2021/07/24 02:23:22;;;;;;;7.90;7.20;;;21.90;30.90;;;;;;10431543;28;20253;-71
2021/07/24 02:28:25;;;;;;;7.77;7.07;;;21.90;30.90;;;;;;10429870;28;20236;-71
2021/07/24 02:33:28;;;;;;;9.57;8.10;;;21.80;30.50;;;;;;10426028;28;20712;-71
2021/07/24 02:38:33;;;;;;;8.00;7.30;;;21.70;30.70;;;;;;10427194;28;20225;-71
2021/07/24 02:43:36;;;;;;;8.37;7.63;;;21.60;30.90;;;;;;10426435;28;20230;-71
2021/07/24 02:48:39;;;;;;;7.90;7.23;;;21.60;30.50;;;;;;10429254;28;20253;-71
2021/07/24 02:53:44;;;;;;;7.93;7.23;;;21.40;30.50;;;;;;10426790;28;20232;-71
2021/07/24 02:58:47;;;;;;;8.17;7.43;;;21.30;31.20;;;;;;10428553;28;20733;-71
2021/07/24 03:03:50;;;;;;;8.53;7.70;;;21.20;30.90;;;;;;10431131;28;20240;-71
2021/07/24 03:08:54;;;;;;;8.03;7.27;;;21.20;31.10;;;;;;10423019;28;20240;-71
2021/07/24 03:13:57;;;;;;;7.90;7.20;;;21.20;31.70;;;;;;10429837;28;20255;-71
2021/07/24 03:19:01;;;;;;;8.07;7.27;;;21.00;31.00;;;;;;10427367;28;20242;-71
2021/07/24 03:24:05;;;;;;;7.50;6.90;;;20.90;31.20;;;;;;10428770;28;20717;-71
2021/07/24 03:29:09;;;;;;;7.80;7.10;;;20.90;31.70;;;;;;10426155;28;20229;-71
2021/07/24 03:34:12;;;;;;;8.80;8.00;;;20.80;31.50;;;;;;10425382;28;20236;-71
2021/07/24 03:39:16;;;;;;;9.00;8.10;;;20.80;31.70;;;;;;10426660;28;20229;-71
2021/07/24 03:44:19;;;;;;;8.60;7.80;;;20.70;32.20;;;;;;10430420;28;20236;-71
2021/07/24 03:49:22;;;;;;;8.50;7.70;;;20.70;31.80;;;;;;10428214;28;20595;-71
2021/07/24 03:54:28;;;;;;;8.30;7.50;;;20.70;31.90;;;;;;10430700;28;20229;-71
2021/07/24 03:59:31;;;;;;;8.13;7.33;;;20.60;32.50;;;;;;10420543;28;20233;-71
2021/07/24 04:04:36;;;;;;;9.40;8.50;;;20.60;32.20;;;;;;10425030;28;20755;-71
2021/07/24 04:09:40;;;;;;;7.53;6.83;;;20.50;32.30;;;;;;10424252;28;20597;-71
2021/07/24 04:14:45;;;;;;;8.73;7.93;;;20.50;32.70;;;;;;10430432;28;20251;-71
2021/07/24 04:19:48;;;;;;;8.87;8.07;;;20.50;32.50;;;;;;10421757;28;21192;-71
2021/07/24 04:24:53;;;;;;;9.00;8.17;;;20.50;32.60;;;;;;10420795;28;20229;-71
2021/07/24 04:29:58;;;;;;;9.20;8.27;;;20.50;33.50;;;;;;10417187;28;20225;-70
2021/07/24 04:35:01;;;;;;;9.10;8.20;;;20.40;33.60;;;;;;10423928;28;20240;-71
2021/07/24 04:40:07;;;;;;;8.57;7.73;;;20.40;33.10;;;;;;10424480;28;20621;-70
2021/07/24 04:45:11;;;;;;;9.07;8.27;;;20.40;33.70;;;;;;10424185;28;20229;-70
2021/07/24 04:50:14;;;;;;;10.13;9.23;;;20.30;33.40;;;;;;10420245;28;20235;-70
2021/07/24 04:55:20;;;;;;;10.67;9.67;;;20.20;33.30;;;;;;10421593;28;20217;-70
2021/07/24 05:00:23;;;;;;;10.90;9.37;;;20.20;34.40;;;;;;10421558;28;20236;-70
2021/07/24 05:05:26;;;;;;;11.37;10.17;;;20.10;33.90;;;;;;10417809;28;20249;-70
2021/07/24 05:10:31;;;;;;;10.90;9.80;;;20.10;34.20;;;;;;10424593;28;20228;-71
2021/07/24 05:15:34;;;;;;;10.97;9.97;;;20.10;35.00;;;;;;10423687;28;20260;-70
2021/07/24 05:20:37;;;;;;;10.40;9.47;;;20.10;34.80;;;;;;10425218;28;20239;-71
2021/07/24 05:25:42;;;;;;;11.33;9.20;;;20.30;35.10;;;;;;10422757;28;20243;-70
2021/07/24 05:30:45;;;;;;;10.47;9.47;;;20.40;35.80;;;;;;10423688;28;20243;-71
2021/07/24 05:35:48;;;;;;;10.47;9.57;;;20.50;35.40;;;;;;10423475;28;20237;-70
2021/07/24 05:40:53;;;;;;;11.40;10.30;;;20.70;35.70;;;;;;10428240;28;20460;-71
2021/07/24 05:45:56;;;;;;;10.23;9.23;;;20.80;36.90;;;;;;10421190;28;20232;-71
2021/07/24 05:51:05;;;;;;;10.33;9.43;;;20.90;36.10;;;;;;10427312;28;20225;-71
2021/07/24 05:56:10;;;;;;;9.70;8.87;;;21.10;36.10;;;;;;10418559;28;20225;-71
2021/07/24 06:01:13;;;;;;;10.80;9.80;;;21.30;36.10;;;;;;10423691;28;20708;-71
2021/07/24 06:06:16;;;;;;;10.30;9.37;;;21.50;35.80;;;;;;10424775;28;20252;-71
2021/07/24 06:11:21;;;;;;;9.87;8.97;;;21.70;36.00;;;;;;10421290;28;20599;-71
2021/07/24 06:16:24;;;;;;;10.50;9.50;;;21.90;36.30;;;;;;10420290;28;20304;-71
2021/07/24 06:21:27;;;;;;;9.53;8.63;;;22.10;35.50;;;;;;10419926;28;20693;-71
2021/07/24 06:26:32;;;;;;;9.53;8.73;;;22.30;35.50;;;;;;10423459;28;20233;-70
2021/07/24 06:31:37;;;;;;;10.93;9.83;;;22.40;36.00;;;;;;10417355;28;20240;-70
2021/07/24 06:36:40;;;;;;;9.27;8.40;;;22.60;36.10;;;;;;10421429;28;20224;-70
2021/07/24 06:41:45;;;;;;;10.63;9.10;;;22.80;35.60;;;;;;10427699;28;20241;-71
2021/07/24 06:46:48;;;;;;;9.27;8.47;;;23.00;35.80;;;;;;10429664;28;20241;-70
2021/07/24 06:51:51;;;;;;;9.83;8.93;;;23.10;35.30;;;;;;10431547;28;20222;-70
2021/07/24 06:56:56;;;;;;;9.43;8.53;;;23.30;35.30;;;;;;10435847;28;20239;-71
2021/07/24 07:01:59;;;;;;;9.77;8.87;;;23.50;35.40;;;;;;10427442;28;20234;-71
2021/07/24 07:07:04;;;;;;;10.07;9.07;;;23.60;35.30;;;;;;10430371;28;20284;-71
2021/07/24 07:12:09;;;;;;;9.20;8.30;;;23.80;34.80;;;;;;10427984;28;20233;-71
2021/07/24 07:17:13;;;;;;;9.17;8.27;;;24.00;35.00;;;;;;10426330;28;20221;-71
2021/07/24 07:22:16;;;;;;;9.90;9.00;;;24.20;34.80;;;;;;10428705;28;20217;-71
2021/07/24 07:27:21;;;;;;;9.37;8.57;;;24.40;34.70;;;;;;10427382;28;20225;-71
2021/07/24 07:32:24;;;;;;;9.43;8.63;;;24.60;34.20;;;;;;10426618;28;20834;-71
2021/07/24 07:37:28;;;;;;;10.10;9.20;;;24.80;34.30;;;;;;10427608;28;20229;-71
2021/07/24 07:42:33;;;;;;;10.03;9.00;;;25.00;33.70;;;;;;10426797;28;20634;-71
2021/07/24 07:47:37;;;;;;;9.20;8.40;;;25.20;33.50;;;;;;10423998;28;20254;-71
2021/07/24 07:52:40;;;;;;;10.00;8.90;;;25.30;33.20;;;;;;10427064;28;20233;-71
2021/07/24 07:57:45;;;;;;;8.77;8.00;;;25.40;33.30;;;;;;10420717;28;20233;-71
2021/07/24 08:02:52;;;;;;;9.20;8.47;;;25.60;33.10;;;;;;10429018;28;20237;-71
2021/07/24 08:07:56;;;;;;;9.47;8.67;;;25.70;32.80;;;;;;10419505;28;20611;-71
2021/07/24 08:13:10;;;;;;;13.60;9.13;;;26.00;32.90;;;;;;10424605;28;20602;-72
2021/07/24 08:18:15;;;;;;;8.83;8.03;;;26.20;32.10;;;;;;10426450;28;21321;-71
2021/07/24 08:23:18;;;;;;;9.33;8.53;;;26.40;32.90;;;;;;10429511;28;20233;-71
2021/07/24 08:28:26;;;;;;;9.30;8.30;;;26.70;32.50;;;;;;10429426;28;20243;-71
2021/07/24 08:33:29;;;;;;;9.70;8.90;;;26.90;31.30;;;;;;10423676;28;20234;-71
2021/07/24 08:38:32;;;;;;;10.27;8.40;;;27.10;31.50;;;;;;10431296;28;20221;-71
2021/07/24 08:43:37;;;;;;;9.67;8.77;;;27.20;31.10;;;;;;10425895;28;20243;-71
2021/07/24 08:48:40;;;;;;;10.07;9.17;;;27.30;30.60;;;;;;10427332;28;20600;-71
2021/07/24 08:53:44;;;;;;;9.23;8.33;;;27.40;31.30;;;;;;10420521;28;20879;-71
2021/07/24 08:58:53;;;;;;;9.33;8.53;;;27.40;31.30;;;;;;10428814;28;20220;-70
2021/07/24 09:04:04;;;;;;;9.77;8.87;;;27.50;30.90;;;;;;10422153;28;20222;-71
2021/07/24 09:09:07;;;;;;;9.30;8.50;;;27.60;30.40;;;;;;10424735;28;20220;-71
2021/07/24 09:14:12;;;;;;;10.10;9.23;;;27.60;30.00;;;;;;10433766;28;20244;-70
2021/07/24 09:19:16;;;;;;;10.47;9.50;;;27.70;30.00;;;;;;10427866;28;20226;-71
2021/07/24 09:24:22;;;;;;;9.73;8.83;;;27.70;30.00;;;;;;10425109;28;20600;-70
2021/07/24 09:29:27;;;;;;;9.67;8.77;;;27.70;30.00;;;;;;10432959;28;20635;-70
2021/07/24 09:34:41;;;;;;;9.87;8.97;;;27.80;30.10;;;;;;10422152;28;20233;-71
2021/07/24 09:39:45;;;;;;;10.60;9.50;;;27.80;30.00;;;;;;10426128;28;20248;-70
2021/07/24 09:45:06;;;;;;;9.80;8.90;;;27.90;30.10;;;;;;10422255;28;20261;-71
2021/07/24 09:50:10;;;;;;;10.27;9.10;;;28.00;30.00;;;;;;10423548;28;20826;-70
2021/07/24 09:55:24;;;;;;;9.90;8.97;;;28.00;30.20;;;;;;10419396;28;20628;-70
2021/07/24 10:00:33;;;;;;;11.00;9.90;;;28.10;29.80;;;;;;10424007;28;20251;-70
2021/07/24 10:05:38;;;;;;;9.87;9.00;;;28.10;29.80;;;;;;10423345;28;20273;-70
2021/07/24 10:10:43;;;;;;;10.43;9.53;;;28.20;30.20;;;;;;10426573;28;20312;-70
2021/07/24 10:15:48;;;;;;;11.70;10.53;;;28.30;29.70;;;;;;10422788;28;20268;-70
2021/07/24 10:20:51;;;;;;;10.97;9.97;;;28.40;29.30;;;;;;10428817;28;20660;-70
2021/07/24 10:26:02;;;;;;;10.47;9.47;;;28.40;29.40;;;;;;10428091;28;20728;-70
2021/07/24 10:31:12;;;;;;;10.97;9.87;;;28.50;29.20;;;;;;10431939;28;20252;-73
2021/07/24 10:36:17;;;;;;;10.60;9.70;;;28.60;29.40;;;;;;10429275;28;20249;-71
2021/07/24 10:41:42;;;;;;;10.23;9.23;;;28.70;28.90;;;;;;10430232;28;20256;-71
2021/07/24 10:47:17;;;;;;;10.43;9.53;;;28.80;29.00;;;;;;10429679;28;20225;-71
2021/07/24 10:52:21;;;;;;;10.87;9.60;;;28.80;29.00;;;;;;10430313;28;20224;-71
2021/07/24 10:57:59;;;;;;;10.43;9.47;;;28.90;28.90;;;;;;10426145;28;20232;-71
2021/07/24 11:03:04;;;;;;;9.87;9.07;;;28.90;28.80;;;;;;10433435;28;20240;-70
2021/07/24 11:08:09;;;;;;;9.90;9.00;;;28.90;28.90;;;;;;10425147;28;20221;-70
2021/07/24 11:13:46;;;;;;;9.57;8.77;;;29.00;29.10;;;;;;10429589;28;20739;-70
2021/07/24 11:19:17;;;;;;;9.73;8.93;;;29.00;29.10;;;;;;10432662;28;20765;-70
2021/07/24 11:24:21;;;;;;;10.23;9.33;;;29.10;29.30;;;;;;10428336;28;20223;-70
2021/07/24 11:29:24;;;;;;;9.73;8.93;;;29.20;29.20;;;;;;10428678;28;20226;-70
2021/07/24 11:34:30;;;;;;;10.10;9.23;;;29.20;29.10;;;;;;10431079;28;20229;-70
2021/07/24 11:39:34;;;;;;;11.33;10.33;;;29.30;28.80;;;;;;10427440;28;20235;-70
2021/07/24 11:44:37;;;;;;;11.33;10.23;;;29.40;28.90;;;;;;10423874;28;20450;-71
2021/07/24 11:49:44;;;;;;;10.83;9.80;;;29.40;28.90;;;;;;10428172;28;20229;-70
2021/07/24 11:54:51;;;;;;;10.23;9.23;;;29.50;28.30;;;;;;10426295;28;20233;-70
2021/07/24 11:59:54;;;;;;;9.83;9.00;;;29.50;28.00;;;;;;10426197;28;20229;-71
2021/07/24 12:04:59;;;;;;;9.90;9.10;;;29.50;28.40;;;;;;10431093;28;20239;-71
2021/07/24 12:10:02;;;;;;;10.03;9.13;;;29.60;28.10;;;;;;10431320;28;20252;-70
2021/07/24 12:15:07;;;;;;;11.27;9.37;;;29.60;28.00;;;;;;10435048;28;20257;-70
2021/07/24 12:20:21;;;;;;;9.67;8.77;;;29.70;28.30;;;;;;10431062;28;20231;-72
2021/07/24 12:25:25;;;;;;;10.37;9.37;;;29.80;27.90;;;;;;10426574;28;21027;-71
2021/07/24 12:30:29;;;;;;;10.17;9.27;;;29.90;27.90;;;;;;10433084;28;20229;-71
2021/07/24 12:35:34;;;;;;;9.97;9.17;;;30.00;27.60;;;;;;10429730;28;20221;-71
2021/07/24 12:40:37;;;;;;;9.77;8.80;;;30.10;27.20;;;;;;10425773;28;20303;-72
2021/07/24 12:45:40;;;;;;;9.90;8.90;;;30.10;27.50;;;;;;10433162;28;20233;-70
2021/07/24 12:51:05;;;;;;;9.63;8.80;;;30.20;27.30;;;;;;10427621;28;20717;-71
2021/07/24 12:56:08;;;;;;;9.80;8.90;;;30.20;27.00;;;;;;10431345;28;20225;-71
2021/07/24 13:01:14;;;;;;;9.10;8.40;;;30.30;26.80;;;;;;10436249;28;20221;-71
2021/07/24 13:06:20;;;;;;;9.33;8.53;;;30.40;26.30;;;;;;10430236;28;20228;-71
2021/07/24 13:11:23;;;;;;;10.07;9.00;;;30.30;26.10;;;;;;10428654;28;20228;-71
2021/07/24 13:16:28;;;;;;;9.00;8.30;;;30.40;26.30;;;;;;10435280;28;20225;-71
2021/07/24 13:21:33;;;;;;;9.10;8.37;;;30.40;26.30;;;;;;10443097;28;20229;-71
2021/07/24 13:32:01;;;;;;;10.10;9.10;;;30.40;26.00;;;;;;10436984;28;20240;-71
2021/07/24 13:37:06;;;;;;;9.27;8.47;;;30.50;26.00;;;;;;10445246;28;20213;-71
2021/07/24 13:42:09;;;;;;;9.40;8.40;;;30.60;25.50;;;;;;10454224;28;20604;-71
2021/07/24 13:47:12;;;;;;;9.27;8.23;;;30.60;25.60;;;;;;10451777;28;20228;-71
2021/07/24 13:52:17;;;;;;;9.70;8.90;;;30.70;25.50;;;;;;10440625;28;20228;-71
2021/07/24 13:57:20;;;;;;;9.60;8.80;;;30.90;25.00;;;;;;10439249;28;20233;-71
2021/07/24 14:02:24;;;;;;;10.13;9.13;;;30.90;25.00;;;;;;10446277;28;20762;-71
2021/07/24 14:07:29;;;;;;;11.70;10.27;;;31.00;24.60;;;;;;10432439;28;20286;-71
2021/07/24 14:12:32;;;;;;;11.23;10.23;;;31.00;25.50;;;;;;10444429;28;20224;-71
2021/07/24 14:17:50;;;;;;;11.73;10.73;;;30.90;25.70;;;;;;10446152;28;20266;-71
2021/07/24 14:22:55;;;;;;;10.97;10.07;;;30.70;25.90;;;;;;10445253;28;20316;-71
2021/07/24 14:27:58;;;;;;;10.83;9.83;;;30.50;26.40;;;;;;10448077;28;20228;-70
2021/07/24 14:33:01;;;;;;;10.90;9.90;;;30.40;26.60;;;;;;10447626;28;20243;-71
2021/07/24 14:38:05;;;;;;;11.60;10.50;;;30.30;26.70;;;;;;10455449;28;20231;-71
2021/07/24 14:43:08;;;;;;;12.20;11.10;;;30.30;27.00;;;;;;10447062;28;20271;-72
2021/07/24 14:48:13;;;;;;;12.53;11.33;;;30.20;27.10;;;;;;10447343;28;20232;-70
2021/07/24 14:53:17;;;;;;;13.17;11.87;;;30.00;27.20;;;;;;10446682;28;20239;-71
2021/07/24 14:58:21;;;;;;;13.70;12.40;;;29.60;27.60;;;;;;10447570;28;20228;-70
2021/07/24 15:03:24;;;;;;;12.03;10.83;;;29.30;28.00;;;;;;10450160;28;20716;-70
2021/07/24 15:08:30;;;;;;;12.23;11.03;;;29.00;28.30;;;;;;10454679;28;20232;-70
2021/07/24 15:13:34;;;;;;;11.67;10.67;;;28.90;28.90;;;;;;10470344;28;20578;-71
2021/07/24 15:18:38;;;;;;;12.00;10.90;;;28.90;29.00;;;;;;10470578;28;20308;-71
2021/07/24 15:23:43;;;;;;;11.27;10.27;;;28.90;29.00;;;;;;10453275;28;20775;-71
2021/07/24 15:28:47;;;;;;;12.07;10.43;;;29.00;29.20;;;;;;10453012;28;20235;-71
2021/07/24 15:33:50;;;;;;;12.43;11.23;;;29.10;29.00;;;;;;10452618;28;20224;-71
2021/07/24 15:38:55;;;;;;;11.67;10.67;;;29.20;29.50;;;;;;10447199;28;20309;-70
2021/07/24 15:43:58;;;;;;;12.20;11.10;;;29.20;29.30;;;;;;10431224;28;20296;-72
2021/07/24 15:49:01;;;;;;;12.03;10.83;;;29.10;29.40;;;;;;10433730;28;20225;-72
2021/07/24 15:54:06;;;;;;;12.03;10.83;;;29.20;30.00;;;;;;10438751;28;20231;-72
2021/07/24 15:59:09;;;;;;;12.70;11.57;;;29.20;31.00;;;;;;10452820;28;20229;-72
2021/07/24 16:04:12;;;;;;;12.03;11.00;;;29.20;30.60;;;;;;10447296;28;20237;-72
2021/07/24 16:09:16;;;;;;;13.37;12.17;;;29.20;30.40;;;;;;10439116;28;20236;-71
2021/07/24 16:14:20;;;;;;;14.27;12.87;;;29.20;31.00;;;;;;10450757;28;20772;-71
2021/07/24 16:19:23;;;;;;;13.33;12.07;;;29.00;30.40;;;;;;10444891;28;20224;-72
2021/07/24 16:24:27;;;;;;;14.17;12.87;;;28.70;30.60;;;;;;10450619;28;20229;-71
2021/07/24 16:29:31;;;;;;;13.33;12.13;;;28.40;31.70;;;;;;10440345;28;20235;-72
2021/07/24 16:34:34;;;;;;;12.50;11.37;;;28.10;31.70;;;;;;10421807;28;20232;-73
2021/07/24 16:39:39;;;;;;;13.03;11.90;;;27.80;32.10;;;;;;10429339;28;20232;-72
2021/07/24 16:44:42;;;;;;;13.53;12.33;;;27.70;33.50;;;;;;10423726;28;20261;-72
2021/07/24 16:49:45;;;;;;;12.40;11.30;;;27.60;33.00;;;;;;10425255;28;20228;-72
2021/07/24 16:54:50;;;;;;;14.07;12.43;;;27.50;33.00;;;;;;10429678;28;20220;-73
2021/07/24 16:59:53;;;;;;;14.33;12.93;;;27.40;34.20;;;;;;10421507;28;20233;-73
2021/07/24 17:04:56;;;;;;;14.93;13.53;;;27.30;33.50;;;;;;10425223;28;20237;-73
2021/07/24 17:10:00;;;;;;;13.20;11.90;;;27.10;33.70;;;;;;10426217;28;20232;-73
2021/07/24 17:15:04;;;;;;;13.90;12.50;;;27.00;34.80;;;;;;10423303;28;20292;-73
2021/07/24 17:20:08;;;;;;;14.77;13.37;;;27.00;34.70;;;;;;10429257;28;20701;-74
2021/07/24 17:25:14;;;;;;;14.80;13.37;;;26.90;34.70;;;;;;10420112;28;20236;-73
2021/07/24 17:30:17;;;;;;;14.07;12.83;;;26.90;35.50;;;;;;10421150;28;20908;-73
2021/07/24 17:35:21;;;;;;;13.43;12.07;;;26.80;34.60;;;;;;10424639;28;20220;-73
2021/07/24 17:40:25;;;;;;;14.00;12.80;;;26.70;34.80;;;;;;10423522;28;20229;-74
2021/07/24 17:45:28;;;;;;;12.97;11.70;;;26.60;35.20;;;;;;10420585;28;20229;-73
2021/07/24 17:50:32;;;;;;;13.77;12.40;;;26.60;35.00;;;;;;10418222;28;20769;-73
2021/07/24 17:55:36;;;;;;;11.90;10.90;;;26.60;34.70;;;;;;10416205;28;20229;-74
2021/07/24 18:00:39;;;;;;;13.10;11.23;;;26.40;35.00;;;;;;10422490;28;20241;-73
2021/07/24 18:05:43;;;;;;;13.67;12.40;;;26.40;35.00;;;;;;10419243;28;20279;-74
2021/07/24 18:10:48;;;;;;;13.97;12.37;;;26.20;35.40;;;;;;10424150;28;20232;-74
2021/07/24 18:15:51;;;;;;;13.50;12.20;;;26.00;36.30;;;;;;10431811;28;20217;-73
2021/07/24 18:20:54;;;;;;;13.77;12.30;;;25.70;35.70;;;;;;10426849;28;20240;-74
2021/07/24 18:25:59;;;;;;;13.53;12.07;;;25.50;36.20;;;;;;10419770;28;20271;-75
2021/07/24 18:31:02;;;;;;;16.03;14.43;;;25.30;37.50;;;;;;10423289;28;20230;-73
2021/07/24 18:36:06;;;;;;;17.27;13.47;;;25.20;37.40;;;;;;10429242;28;20225;-74
2021/07/24 18:41:10;;;;;;;14.50;13.00;;;25.20;37.40;;;;;;10430880;28;20241;-73
2021/07/24 18:46:13;;;;;;;14.17;12.53;;;25.20;38.40;;;;;;10426794;28;20232;-73
2021/07/24 18:51:17;;;;;;;13.77;12.47;;;25.10;37.70;;;;;;10426938;28;20221;-73
2021/07/24 18:56:21;;;;;;;13.67;12.27;;;25.10;38.20;;;;;;10429572;28;20228;-72
2021/07/24 19:01:25;;;;;;;13.00;11.57;;;25.10;38.90;;;;;;10432816;28;20696;-74
2021/07/24 19:06:29;;;;;;;10.87;9.80;;;25.10;37.80;;;;;;10428478;28;20236;-72
2021/07/24 19:11:34;;;;;;;10.00;8.90;;;25.10;37.10;;;;;;10430961;28;20233;-72
2021/07/24 19:16:37;;;;;;;10.10;9.10;;;24.90;37.00;;;;;;10429313;28;20317;-72
2021/07/24 19:21:40;;;;;;;11.33;9.43;;;24.70;36.50;;;;;;10429648;28;20240;-73
2021/07/24 19:26:45;;;;;;;10.33;9.27;;;24.50;37.10;;;;;;10425407;28;20238;-71
2021/07/24 19:31:48;;;;;;;10.40;9.40;;;24.30;37.60;;;;;;10420844;28;20610;-72
2021/07/24 19:36:51;;;;;;;9.83;8.73;;;24.10;37.30;;;;;;10424909;28;20224;-72
2021/07/24 19:41:56;;;;;;;9.50;8.60;;;24.00;37.70;;;;;;10432680;28;20236;-72
2021/07/24 19:46:59;;;;;;;9.47;7.40;;;24.00;37.60;;;;;;10431695;28;20237;-73
2021/07/24 19:52:04;;;;;;;8.73;7.93;;;23.80;36.70;;;;;;10432315;28;20576;-72
2021/07/24 19:57:08;;;;;;;10.00;8.23;;;23.60;36.50;;;;;;10433362;28;20233;-73
2021/07/24 20:02:15;;;;;;;9.93;8.13;;;23.40;37.30;;;;;;10430586;28;21117;-72
2021/07/24 20:07:19;;;;;;;9.63;7.53;;;23.10;37.60;;;;;;10432799;28;20239;-73
2021/07/24 20:12:24;;;;;;;7.33;6.63;;;22.90;38.10;;;;;;10431050;28;20240;-73
2021/07/24 20:17:28;;;;;;;9.47;6.67;;;22.80;38.60;;;;;;10429240;28;20229;-72
2021/07/24 20:22:32;;;;;;;8.03;6.67;;;22.70;38.50;;;;;;10434428;28;20229;-72
2021/07/24 20:27:38;;;;;;;7.80;7.00;;;22.60;38.80;;;;;;10430901;28;20261;-73
2021/07/24 20:32:42;;;;;;;8.20;7.43;;;22.60;38.90;;;;;;10428019;28;20677;-72
2021/07/24 20:37:45;;;;;;;7.80;6.53;;;22.60;38.80;;;;;;10426391;28;20226;-72
2021/07/24 20:43:04;;;;;;;6.70;5.77;;;22.50;38.70;;;;;;10424306;28;20237;-72
2021/07/24 20:48:07;;;;;;;6.27;5.67;;;22.40;38.60;;;;;;10418348;28;20271;-72
2021/07/24 20:53:10;;;;;;;6.87;5.50;;;22.50;38.70;;;;;;10411163;28;20235;-71
2021/07/24 20:58:24;;;;;;;6.50;5.70;;;22.50;38.70;;;;;;10421827;28;20584;-71
2021/07/24 21:03:28;;;;;;;5.87;5.37;;;22.60;38.80;;;;;;10427235;28;20234;-73
2021/07/24 21:08:33;;;;;;;6.80;5.17;;;22.60;38.80;;;;;;10424909;28;20230;-72
2021/07/24 21:13:38;;;;;;;6.80;4.97;;;22.50;38.70;;;;;;10419806;28;20878;-72
2021/07/24 21:18:41;;;;;;;6.23;5.10;;;22.50;38.70;;;;;;10419842;28;20233;-72
2021/07/24 21:23:44;;;;;;;5.83;4.93;;;22.50;38.70;;;;;;10424067;28;20236;-71
2021/07/24 21:28:49;;;;;;;8.77;5.07;;;22.40;38.60;;;;;;10417957;28;20239;-72
2021/07/24 21:33:52;;;;;;;5.50;4.90;;;22.50;38.90;;;;;;10419465;28;20315;-72
2021/07/24 21:38:57;;;;;;;5.20;4.70;;;22.50;38.70;;;;;;10419168;28;20228;-72
2021/07/24 21:44:02;;;;;;;6.70;4.97;;;22.50;38.80;;;;;;10416075;28;20233;-72
2021/07/24 21:49:05;;;;;;;8.13;5.47;;;22.50;39.10;;;;;;10420340;28;20338;-72
2021/07/24 21:54:08;;;;;;;4.80;4.40;;;22.50;38.70;;;;;;10419502;28;20225;-72
2021/07/24 21:59:13;;;;;;;5.33;4.83;;;22.60;38.80;;;;;;10423117;28;20291;-72
2021/07/24 22:04:19;;;;;;;5.27;4.87;;;22.60;38.80;;;;;;10424378;28;20724;-73
2021/07/24 22:09:23;;;;;;;5.23;4.70;;;22.60;38.80;;;;;;10426296;28;20235;-72
2021/07/24 22:14:27;;;;;;;5.70;4.87;;;22.60;38.80;;;;;;10426863;28;20715;-72
2021/07/24 22:19:31;;;;;;;5.70;5.00;;;22.60;38.80;;;;;;10430808;28;20225;-72
2021/07/24 22:24:36;;;;;;;6.27;5.10;;;22.60;38.80;;;;;;10428494;28;20239;-72
2021/07/24 22:29:41;;;;;;;6.33;5.13;;;22.60;39.50;;;;;;10429327;28;20234;-72
2021/07/24 22:34:44;;;;;;;5.97;4.70;;;22.60;39.30;;;;;;10425500;28;20654;-72
2021/07/24 22:39:47;;;;;;;5.40;4.90;;;22.60;38.80;;;;;;10432158;28;20752;-73
2021/07/24 22:44:52;;;;;;;4.80;4.37;;;22.60;38.80;;;;;;10428965;28;20233;-73
2021/07/24 22:49:55;;;;;;;6.07;5.47;;;22.50;39.50;;;;;;10426666;28;20325;-73
2021/07/24 22:54:59;;;;;;;6.13;5.20;;;22.50;39.10;;;;;;10424271;28;20240;-73
2021/07/24 23:00:17;;;;;;;6.70;5.67;;;22.50;39.00;;;;;;10425855;28;20253;-73
2021/07/24 23:05:21;;;;;;;12.00;5.10;;;22.40;39.80;;;;;;10427533;28;20229;-73
2021/07/24 23:10:24;;;;;;;5.30;4.80;;;22.20;39.10;;;;;;10424498;28;20908;-73
2021/07/24 23:15:29;;;;;;;4.63;4.23;;;22.20;39.40;;;;;;10420819;28;20232;-73
2021/07/24 23:20:33;;;;;;;5.53;5.03;;;22.10;40.10;;;;;;10419268;28;20244;-73
2021/07/24 23:25:36;;;;;;;5.00;4.60;;;22.10;39.80;;;;;;10422459;28;20229;-73
2021/07/24 23:30:40;;;;;;;5.37;4.87;;;22.10;39.90;;;;;;10423044;28;20225;-73
2021/07/24 23:35:44;;;;;;;5.23;4.73;;;22.10;40.10;;;;;;10419065;28;20701;-73
2021/07/24 23:40:47;;;;;;;7.23;5.43;;;22.10;39.60;;;;;;10426272;28;20590;-73
2021/07/24 23:45:51;;;;;;;6.27;5.00;;;22.10;39.70;;;;;;10430534;28;20233;-73
2021/07/24 23:50:55;;;;;;;7.53;5.10;;;22.10;39.90;;;;;;10429986;28;20229;-73
2021/07/24 23:55:58;;;;;;;9.53;5.10;;;22.10;39.20;;;;;;10423254;28;20599;-73
